.
WxDataArchive / Data Records for 2008-12-08
2008-12-07 December 2008 2008-12-09

Data Records for Monday, 08 December 2008

Time	Temp	Chill	HIndex	Humid	Dewpt	 Wind 	HiWind	WindDir	Rain 	Barom 
-----	----	-----	------	-----	-----	------	------	-------	-----	----- 
00:00	20.8	20.8	20.8	73	13.5	1	3	112	0.00	30.191 
00:05	21.0	21.0	21.0	73	13.7	1	3	112	0.00	30.197 
00:10	21.0	21.0	21.0	73	13.7	0	1	112	0.00	30.197 
00:15	21.0	21.0	21.0	74	14.0	0	2	112	0.00	30.193 
00:20	21.0	21.0	21.0	74	14.0	0	2	112	0.00	30.188 
00:25	21.0	21.0	21.0	74	14.0	0	1	112	0.00	30.188 
00:30	21.0	21.0	21.0	74	14.0	1	2	112	0.00	30.187 
00:35	21.1	21.1	21.1	75	14.4	0	2	112	0.00	30.186 
00:40	21.1	21.1	21.1	75	14.4	1	4	90	0.00	30.184 
00:45	21.1	21.1	21.1	75	14.4	1	3	112	0.00	30.177 
00:50	21.1	21.1	21.1	75	14.4	0	2	112	0.00	30.172 
00:55	21.1	21.1	21.1	75	14.4	1	3	112	0.00	30.171 
01:00	21.1	21.1	21.1	75	14.4	1	3	112	0.00	30.168 
01:05	21.1	21.1	21.1	75	14.4	1	3	112	0.00	30.162 
01:10	21.1	21.1	21.1	76	14.7	0	2	112	0.00	30.160 
01:15	21.1	21.1	21.1	76	14.7	0	2	135	0.00	30.156 
01:20	21.3	21.3	21.3	76	14.9	0	2	90	0.00	30.153 
01:25	21.3	21.3	21.3	76	14.9	0	2	112	0.00	30.152 
01:30	21.3	21.3	21.3	76	14.9	1	2	112	0.00	30.154 
01:35	21.3	21.3	21.3	76	14.9	0	3	135	0.00	30.155 
01:40	21.4	21.4	21.4	75	14.7	0	2	68	0.00	30.154 
01:45	21.6	21.6	21.6	74	14.6	1	3	158	0.00	30.150 
01:50	21.6	21.6	21.6	73	14.3	1	4	90	0.00	30.151 
01:55	21.8	21.8	21.8	72	14.2	1	3	112	0.00	30.151 
02:00	21.9	21.9	21.9	72	14.3	0	3	112	0.00	30.150 
02:05	22.1	22.1	22.1	72	14.5	1	3	135	0.00	30.150 
02:10	22.1	22.1	22.1	72	14.5	1	2	135	0.00	30.149 
02:15	22.1	22.1	22.1	71	14.2	1	5	135	0.00	30.151 
02:20	22.2	22.2	22.2	70	13.9	1	3	112	0.00	30.151 
02:25	22.4	22.4	22.4	70	14.1	1	4	112	0.00	30.151 
02:30	22.4	22.4	22.4	70	14.1	1	4	68	0.00	30.150 
02:35	22.4	22.4	22.4	69	13.8	1	3	90	0.00	30.149 
02:40	22.5	22.5	22.5	69	13.9	1	4	112	0.00	30.146 
02:45	22.5	22.5	22.5	69	13.9	1	3	112	0.00	30.148 
02:50	22.5	22.5	22.5	69	13.9	1	4	112	0.00	30.141 
02:55	22.5	22.5	22.5	70	14.2	1	4	68	0.00	30.137 
03:00	22.7	22.7	22.7	69	14.1	1	4	90	0.00	30.136 
03:05	22.7	22.7	22.7	69	14.1	1	4	112	0.00	30.135 
03:10	22.7	22.7	22.7	69	14.1	1	3	112	0.00	30.135 
03:15	22.9	22.9	22.9	69	14.3	1	6	90	0.00	30.137 
03:20	22.9	22.9	22.9	69	14.3	1	3	68	0.00	30.142 
03:25	22.9	22.9	22.9	69	14.3	1	4	112	0.00	30.137 
03:30	23.0	23.0	23.0	69	14.4	1	2	112	0.00	30.136 
03:35	23.0	23.0	23.0	69	14.4	1	3	135	0.00	30.134 
03:40	23.0	23.0	23.0	69	14.4	1	3	135	0.00	30.133 
03:45	23.0	23.0	23.0	69	14.4	1	4	68	0.00	30.133 
03:50	23.0	23.0	23.0	69	14.4	1	3	135	0.00	30.125 
03:55	23.0	23.0	23.0	69	14.4	1	2	90	0.00	30.121 
04:00	23.0	23.0	23.0	69	14.4	1	3	135	0.00	30.120 
04:05	23.0	23.0	23.0	69	14.4	1	4	315	0.00	30.123 
04:10	23.2	23.2	23.2	69	14.6	1	3	90	0.00	30.123 
04:15	23.2	23.2	23.2	69	14.6	1	4	112	0.00	30.122 
04:20	23.2	23.2	23.2	69	14.6	1	3	135	0.00	30.122 
04:25	23.2	23.2	23.2	69	14.6	1	4	112	0.00	30.120 
04:30	23.3	23.3	23.3	69	14.7	0	2	112	0.00	30.118 
04:35	23.3	23.3	23.3	69	14.7	1	5	90	0.00	30.114 
04:40	23.3	23.3	23.3	69	14.7	0	2	112	0.00	30.109 
04:45	23.2	23.2	23.2	69	14.6	1	2	135	0.00	30.106 
04:50	23.2	23.2	23.2	69	14.6	0	1	135	0.00	30.107 
04:55	23.2	23.2	23.2	69	14.6	0	4	112	0.00	30.105 
05:00	23.2	23.2	23.2	69	14.6	0	2	112	0.00	30.110 
05:05	23.2	23.2	23.2	69	14.6	0	3	135	0.00	30.112 
05:10	23.3	23.3	23.3	69	14.7	1	4	90	0.00	30.110 
05:15	23.3	23.3	23.3	69	14.7	0	2	112	0.00	30.112 
05:20	23.5	23.5	23.5	69	14.9	0	1	112	0.00	30.111 
05:25	23.5	23.5	23.5	69	14.9	0	1	112	0.00	30.116 
05:30	23.5	23.5	23.5	69	14.9	0	2	112	0.00	30.112 
05:35	23.5	23.5	23.5	69	14.9	0	2	112	0.00	30.113 
05:40	23.5	23.5	23.5	69	14.9	0	2	158	0.00	30.110 
05:45	23.3	23.3	23.3	69	14.7	0	1	135	0.00	30.110 
05:50	23.3	23.3	23.3	69	14.7	0	2	135	0.00	30.113 
05:55	23.3	23.3	23.3	69	14.7	0	1	135	0.00	30.112 
06:00	23.3	23.3	23.3	69	14.7	1	4	112	0.00	30.111 
06:05	23.2	23.2	23.2	69	14.6	0	1	112	0.00	30.110 
06:10	23.0	23.0	23.0	69	14.4	0	1	158	0.00	30.108 
06:15	23.0	23.0	23.0	69	14.4	0	2	158	0.00	30.109 
06:20	22.9	22.9	22.9	69	14.3	0	1	135	0.00	30.111 
06:25	22.7	22.7	22.7	70	14.4	0	1	135	0.00	30.112 
06:30	22.5	22.5	22.5	70	14.2	0	1	135	0.00	30.112 
06:35	22.5	22.5	22.5	71	14.5	0	1	135	0.00	30.107 
06:40	22.5	22.5	22.5	71	14.5	0	1	135	0.00	30.107 
06:45	22.5	22.5	22.5	71	14.5	0	1	135	0.00	30.110 
06:50	22.5	22.5	22.5	71	14.5	0	1	135	0.00	30.112 
06:55	22.5	22.5	22.5	72	14.9	0	1	135	0.00	30.112 
07:00	22.5	22.5	22.5	72	14.9	0	1	135	0.00	30.110 
07:05	22.4	22.4	22.4	72	14.8	0	1	135	0.00	30.109 
07:10	22.4	22.4	22.4	72	14.8	0	1	135	0.00	30.107 
07:15	22.4	22.4	22.4	72	14.8	0	1	135	0.00	30.107 
07:20	22.4	22.4	22.4	73	15.1	0	1	135	0.00	30.107 
07:25	22.4	22.4	22.4	73	15.1	0	1	135	0.00	30.107 
07:30	22.2	22.2	22.2	73	14.9	0	1	135	0.00	30.107 
07:35	22.2	22.2	22.2	73	14.9	0	1	135	0.00	30.106 
07:40	22.2	22.2	22.2	73	14.9	0	1	135	0.00	30.106 
07:45	22.1	22.1	22.1	73	14.8	0	1	135	0.00	30.107 
07:50	21.9	21.9	21.9	73	14.6	0	1	135	0.00	30.107 
07:55	21.8	21.8	21.8	74	14.8	0	1	135	0.00	30.108 
08:00	21.6	21.6	21.6	74	14.6	0	1	135	0.00	30.106 
08:05	21.4	21.4	21.4	74	14.4	0	0	---	0.00	30.108 
08:10	21.4	21.4	21.4	75	14.7	0	1	135	0.00	30.108 
08:15	21.4	21.4	21.4	75	14.7	0	0	---	0.00	30.109 
08:20	21.6	21.6	21.6	75	14.9	0	1	135	0.00	30.107 
08:25	21.8	21.8	21.8	75	15.1	0	1	135	0.00	30.107 
08:30	21.8	21.8	21.8	75	15.1	0	1	135	0.00	30.106 
08:35	21.9	21.9	21.9	75	15.2	0	1	135	0.00	30.107 
08:40	22.1	22.1	22.1	74	15.1	0	1	135	0.00	30.107 
08:45	22.2	22.2	22.2	74	15.2	0	1	135	0.00	30.108 
08:50	22.4	22.4	22.4	74	15.4	0	1	135	0.00	30.111 
08:55	22.5	22.5	22.5	73	15.2	0	1	135	0.00	30.111 
09:00	22.9	22.9	22.9	73	15.6	0	1	135	0.00	30.115 
09:05	23.0	23.0	23.0	73	15.7	0	1	135	0.00	30.117 
09:10	23.3	23.3	23.3	72	15.6	1	2	135	0.00	30.114 
09:15	23.5	23.5	23.5	72	15.8	0	1	135	0.00	30.119 
09:20	23.6	23.6	23.6	72	15.9	0	1	135	0.00	30.119 
09:25	23.8	23.8	23.8	71	15.8	0	1	135	0.00	30.111 
09:30	23.8	23.8	23.8	71	15.8	0	2	135	0.00	30.106 
09:35	23.9	23.9	23.9	71	15.9	0	1	135	0.00	30.119 
09:40	24.1	24.1	24.1	71	16.1	0	2	135	0.00	30.117 
09:45	24.4	24.4	24.4	71	16.4	0	1	135	0.00	30.119 
09:50	24.5	24.5	24.5	71	16.5	0	1	135	0.00	30.120 
09:55	24.8	24.8	24.8	70	16.4	0	1	135	0.00	30.122 
10:00	25.1	25.1	25.1	70	16.7	0	2	135	0.00	30.123 
10:05	25.4	25.4	25.4	70	17.0	0	2	135	0.00	30.119 
10:10	25.6	25.6	25.6	70	17.2	0	2	135	0.00	30.119 
10:15	25.8	25.8	25.8	69	17.1	0	2	158	0.00	30.118 
10:20	26.3	26.3	26.3	69	17.5	0	2	112	0.00	30.118 
10:25	26.6	26.6	26.6	68	17.5	1	3	112	0.00	30.117 
10:30	27.0	27.0	27.0	68	17.9	1	2	135	0.00	30.114 
10:35	27.3	27.3	27.3	67	17.8	1	2	135	0.00	30.114 
10:40	27.5	27.5	27.5	67	18.0	1	3	135	0.00	30.118 
10:45	27.8	27.8	27.8	66	17.9	1	3	90	0.00	30.119 
10:50	28.2	28.2	28.2	65	18.0	1	2	112	0.00	30.115 
10:55	28.5	28.5	28.5	65	18.3	1	2	270	0.00	30.117 
11:00	28.7	28.7	28.7	64	18.1	1	4	90	0.00	30.114 
11:05	28.8	28.8	28.8	64	18.2	0	4	45	0.00	30.112 
11:10	29.1	29.1	29.1	64	18.5	0	2	135	0.00	30.108 
11:15	29.3	29.3	29.3	64	18.7	0	2	135	0.00	30.104 
11:20	29.4	29.4	29.4	63	18.4	1	3	90	0.00	30.105 
11:25	29.5	29.5	29.5	63	18.5	1	4	90	0.00	30.104 
11:30	29.5	29.5	29.5	64	18.8	1	3	112	0.00	30.107 
11:35	29.7	29.7	29.7	64	19.0	0	2	112	0.00	30.102 
11:40	30.0	30.0	30.0	63	19.0	0	2	112	0.00	30.105 
11:45	30.1	30.1	30.1	63	19.0	0	3	112	0.00	30.098 
11:50	30.1	30.1	30.1	63	19.0	1	4	135	0.00	30.099 
11:55	30.1	30.1	30.1	63	19.0	1	4	112	0.00	30.090 
12:00	30.3	30.3	30.3	64	19.6	1	2	270	0.00	30.085 
12:05	30.4	30.4	30.4	63	19.3	1	3	112	0.00	30.083 
12:10	30.6	30.6	30.6	63	19.5	1	6	90	0.00	30.084 
12:15	30.6	30.6	30.6	63	19.5	1	5	90	0.00	30.076 
12:20	30.7	30.7	30.7	64	20.0	1	4	112	0.00	30.073 
12:25	30.9	30.9	30.9	64	20.2	1	3	135	0.00	30.067 
12:30	31.0	31.0	31.0	64	20.3	1	3	112	0.00	30.067 
12:35	31.2	31.2	31.2	64	20.5	1	4	112	0.00	30.064 
12:40	31.3	31.3	31.3	64	20.6	1	2	112	0.00	30.063 
12:45	31.5	31.5	31.5	63	20.4	1	4	112	0.01	30.061 
12:50	31.6	31.6	31.6	64	20.8	1	3	112	0.00	30.058 
12:55	31.6	31.6	31.6	64	20.8	1	3	135	0.00	30.057 
13:00	31.8	31.8	31.8	65	21.4	0	3	135	0.00	30.056 
13:05	32.1	32.1	32.1	65	21.7	1	2	112	0.00	30.051 
13:10	32.2	32.2	32.2	65	21.8	0	2	135	0.00	30.053 
13:15	32.2	32.2	32.2	64	21.4	0	2	112	0.00	30.048 
13:20	32.2	32.2	32.2	65	21.8	1	2	112	0.00	30.048 
13:25	32.2	32.2	32.2	65	21.8	1	5	135	0.00	30.052 
13:30	32.4	32.4	32.4	65	22.0	0	3	112	0.00	30.047 
13:35	32.5	32.5	32.5	65	22.1	1	3	135	0.00	30.045 
13:40	32.7	32.7	32.7	65	22.3	1	3	135	0.00	30.034 
13:45	32.7	32.7	32.7	65	22.3	0	2	135	0.00	30.032 
13:50	32.8	32.8	32.8	65	22.3	1	2	68	0.00	30.032 
13:55	32.9	32.9	32.9	65	22.4	1	4	112	0.00	30.032 
14:00	32.9	32.9	32.9	65	22.4	1	2	135	0.00	30.025 
14:05	32.9	32.9	32.9	65	22.4	1	4	112	0.00	30.019 
14:10	32.9	32.9	32.9	65	22.4	1	4	135	0.00	30.014 
14:15	32.8	32.8	32.8	66	22.7	1	3	112	0.00	30.014 
14:20	32.8	32.8	32.8	67	23.1	1	3	112	0.00	30.013 
14:25	32.7	32.7	32.7	68	23.3	1	4	112	0.00	30.015 
14:30	32.7	32.7	32.7	68	23.3	1	3	135	0.00	30.010 
14:35	32.8	32.8	32.8	69	23.8	0	1	90	0.00	30.009 
14:40	32.8	32.8	32.8	69	23.8	1	3	112	0.00	30.004 
14:45	32.8	32.8	32.8	69	23.8	1	2	112	0.00	30.004 
14:50	32.7	32.7	32.7	70	24.0	1	4	112	0.00	30.000 
14:55	32.7	32.7	32.7	71	24.4	1	2	135	0.00	30.006 
15:00	32.7	32.7	32.7	73	25.0	0	2	135	0.00	30.005 
15:05	32.7	32.7	32.7	73	25.0	1	3	158	0.00	30.003 
15:10	32.5	32.5	32.5	74	25.2	0	3	135	0.00	30.005 
15:15	32.5	32.5	32.5	74	25.2	1	3	90	0.00	29.998 
15:20	32.5	32.5	32.5	74	25.2	1	2	112	0.00	29.997 
15:25	32.5	32.5	32.5	74	25.2	1	3	135	0.00	29.997 
15:30	32.5	32.5	32.5	74	25.2	0	2	112	0.00	30.000 
15:35	32.5	32.5	32.5	75	25.5	1	4	112	0.00	30.000 
15:40	32.7	32.7	32.7	75	25.7	1	2	135	0.00	30.005 
15:45	32.7	32.7	32.7	74	25.3	1	4	135	0.00	29.999 
15:50	32.7	32.7	32.7	75	25.7	1	4	135	0.00	29.995 
15:55	32.7	32.7	32.7	75	25.7	0	2	135	0.00	30.004 
16:00	32.7	32.7	32.7	75	25.7	1	3	135	0.00	30.011 
16:05	32.7	32.7	32.7	75	25.7	0	3	90	0.00	30.005 
16:10	32.8	32.8	32.8	76	26.1	1	2	112	0.00	30.004 
16:15	32.8	32.8	32.8	76	26.1	1	3	180	0.00	30.006 
16:20	32.8	32.8	32.8	76	26.1	1	2	135	0.00	30.007 
16:25	32.8	32.8	32.8	77	26.4	1	4	135	0.00	30.001 
16:30	32.8	32.8	32.8	77	26.4	1	3	112	0.00	29.997 
16:35	32.7	32.7	32.7	78	26.6	1	3	90	0.00	29.997 
16:40	32.7	32.7	32.7	78	26.6	1	3	112	0.00	29.999 
16:45	32.7	32.7	32.7	78	26.6	1	2	112	0.00	29.999 
16:50	32.5	32.5	32.5	79	26.7	1	3	292	0.00	29.999 
16:55	32.5	32.5	32.5	79	26.7	1	4	112	0.00	29.992 
17:00	32.4	32.4	32.4	80	26.9	1	4	112	0.00	29.991 
17:05	32.4	32.4	32.4	80	26.9	1	4	135	0.00	29.987 
17:10	32.2	32.2	32.2	80	26.7	1	4	112	0.00	29.985 
17:15	32.2	32.2	32.2	80	26.7	1	4	112	0.00	29.998 
17:20	32.2	32.2	32.2	81	27.0	1	4	112	0.00	29.988 
17:25	32.2	32.2	32.2	81	27.0	1	4	112	0.00	29.996 
17:30	32.1	32.1	32.1	81	26.9	1	4	90	0.00	29.990 
17:35	32.1	32.1	32.1	81	26.9	1	3	68	0.00	29.989 
17:40	32.1	32.1	32.1	81	26.9	1	3	112	0.00	29.989 
17:45	31.9	31.9	31.9	81	26.7	1	5	112	0.00	29.985 
17:50	31.9	31.9	31.9	81	26.7	1	3	90	0.00	29.984 
17:55	31.9	31.9	31.9	81	26.7	2	6	112	0.00	29.984 
18:00	31.9	31.9	31.9	81	26.7	1	5	112	0.00	29.983 
18:05	31.9	31.9	31.9	81	26.7	1	3	112	0.00	29.984 
18:10	31.9	31.9	31.9	81	26.7	1	4	112	0.00	29.986 
18:15	31.9	31.9	31.9	81	26.7	1	5	112	0.00	29.984 
18:20	31.9	31.9	31.9	81	26.7	1	4	112	0.00	29.986 
18:25	31.9	31.9	31.9	81	26.7	1	3	135	0.00	29.987 
18:30	31.9	31.9	31.9	81	26.7	0	2	158	0.00	29.991 
18:35	31.9	31.9	31.9	81	26.7	1	4	112	0.00	29.983 
18:40	31.9	31.9	31.9	81	26.7	1	4	112	0.00	29.987 
18:45	32.1	32.1	32.1	81	26.9	1	4	112	0.00	29.984 
18:50	32.1	32.1	32.1	80	26.6	1	4	112	0.00	29.982 
18:55	32.1	32.1	32.1	80	26.6	1	5	90	0.00	29.976 
19:00	32.2	32.2	32.2	80	26.7	1	4	90	0.00	29.972 
19:05	32.2	32.2	32.2	79	26.4	2	6	112	0.00	29.970 
19:10	32.2	32.2	32.2	79	26.4	1	3	90	0.00	29.969 
19:15	32.2	32.2	32.2	79	26.4	1	4	112	0.00	29.969 
19:20	32.2	32.2	32.2	79	26.4	1	4	112	0.00	29.967 
19:25	32.2	32.2	32.2	79	26.4	1	5	90	0.00	29.967 
19:30	32.4	32.4	32.4	79	26.6	1	3	90	0.00	29.967 
19:35	32.2	32.2	32.2	79	26.4	1	3	90	0.00	29.965 
19:40	32.2	32.2	32.2	79	26.4	1	3	112	0.00	29.968 
19:45	32.2	32.2	32.2	79	26.4	1	4	112	0.00	29.970 
19:50	32.4	32.4	32.4	79	26.6	1	3	112	0.00	29.968 
19:55	32.4	32.4	32.4	78	26.3	1	5	90	0.00	29.968 
20:00	32.5	32.5	32.5	78	26.4	1	3	112	0.00	29.968 
20:05	32.7	32.7	32.7	77	26.3	1	4	112	0.00	29.965 
20:10	32.7	32.7	32.7	77	26.3	1	3	112	0.00	29.966 
20:15	32.7	32.7	32.7	77	26.3	1	3	112	0.00	29.962 
20:20	32.7	32.7	32.7	78	26.6	1	4	112	0.00	29.961 
20:25	32.7	32.7	32.7	78	26.6	0	2	68	0.00	29.960 
20:30	32.7	32.7	32.7	78	26.6	1	2	68	0.00	29.961 
20:35	32.7	32.7	32.7	78	26.6	1	3	68	0.00	29.958 
20:40	32.7	32.7	32.7	78	26.6	0	3	68	0.00	29.954 
20:45	32.7	32.7	32.7	78	26.6	1	3	68	0.00	29.951 
20:50	32.7	32.7	32.7	78	26.6	1	4	90	0.00	29.945 
20:55	32.8	32.8	32.8	78	26.7	1	3	90	0.00	29.944 
21:00	32.8	32.8	32.8	78	26.7	1	3	112	0.00	29.939 
21:05	32.9	32.9	32.9	78	26.8	2	5	90	0.00	29.937 
21:10	32.9	32.9	32.9	78	26.8	2	4	90	0.00	29.934 
21:15	32.9	32.9	32.9	77	26.5	1	5	90	0.00	29.926 
21:20	33.1	33.1	33.1	77	26.7	1	4	90	0.00	29.929 
21:25	33.1	33.1	33.1	77	26.7	2	4	112	0.00	29.926 
21:30	33.1	33.1	33.1	78	27.0	0	2	112	0.00	29.925 
21:35	33.1	33.1	33.1	78	27.0	1	3	90	0.00	29.923 
21:40	32.9	32.9	32.9	78	26.8	0	2	90	0.00	29.921 
21:45	32.9	32.9	32.9	78	26.8	1	3	90	0.00	29.919 
21:50	33.1	33.1	33.1	78	27.0	1	3	90	0.00	29.923 
21:55	33.1	33.1	33.1	78	27.0	1	3	90	0.00	29.918 
22:00	33.2	33.2	33.2	78	27.1	2	4	90	0.00	29.914 
22:05	33.2	33.2	33.2	78	27.1	1	3	90	0.00	29.912 
22:10	33.4	33.4	33.4	78	27.3	1	2	90	0.00	29.914 
22:15	33.4	33.4	33.4	78	27.3	1	3	90	0.00	29.912 
22:20	33.4	33.4	33.4	78	27.3	2	4	90	0.00	29.908 
22:25	33.4	33.4	33.4	78	27.3	1	3	90	0.00	29.907 
22:30	33.4	33.4	33.4	78	27.3	1	4	90	0.00	29.901 
22:35	33.4	33.4	33.4	78	27.3	1	4	90	0.00	29.900 
22:40	33.4	33.4	33.4	78	27.3	1	2	90	0.00	29.902 
22:45	33.4	33.4	33.4	78	27.3	0	2	90	0.00	29.900 
22:50	33.4	33.4	33.4	78	27.3	1	4	90	0.00	29.893 
22:55	33.4	33.4	33.4	78	27.3	1	3	90	0.00	29.885 
23:00	33.4	33.4	33.4	78	27.3	1	3	112	0.00	29.885 
23:05	33.5	33.5	33.5	78	27.4	2	3	112	0.00	29.881 
23:10	33.7	33.7	33.7	77	27.3	1	3	112	0.00	29.880 
23:15	33.7	33.7	33.7	77	27.3	1	2	112	0.00	29.881 
23:20	33.8	33.8	33.8	77	27.4	0	2	112	0.00	29.881 
23:25	33.8	33.8	33.8	77	27.4	0	1	112	0.00	29.882 
23:30	33.8	33.8	33.8	77	27.4	0	1	112	0.00	29.882 
23:35	34.0	34.0	34.0	76	27.2	0	1	112	0.00	29.885 
23:40	34.1	34.1	34.1	75	27.0	1	3	90	0.00	29.881 
23:45	34.4	34.4	34.4	74	27.0	0	3	135	0.00	29.885 
23:50	34.6	34.6	34.6	74	27.2	0	1	135	0.00	29.882 
23:55	34.7	34.7	34.7	73	26.9	0	1	135	0.00	29.882 

CoCoRaHS
IN-AL-39
A2 Web Hosting
Creative Commons License
GoDaddy
search engine by freefind advanced

loaded 2018-11-12 14:45:44 • last modified 2010-11-18 10:43:29
Privacy PolicyDisclaimer
• wx.awcolley.com is powered by PmWiki v.2002016 •
• all content (unless otherwise noted) © 2018 A W Colley